createdAt,value
2019-03-24T00:01:40.775Z,36.63
2019-03-24T00:04:02.744Z,38.70
2019-03-24T00:06:31.268Z,38.38
2019-03-24T00:08:59.718Z,36.70
2019-03-24T00:11:28.148Z,36.40
2019-03-24T00:13:56.600Z,35.73
2019-03-24T00:16:25.024Z,36.38
2019-03-24T00:18:53.462Z,34.67
2019-03-24T00:21:21.866Z,33.60
2019-03-24T00:23:50.371Z,33.55
2019-03-24T00:26:18.855Z,33.02
2019-03-24T00:28:47.292Z,34.90
2019-03-24T00:31:15.715Z,34.67
2019-03-24T00:33:44.165Z,33.60
2019-03-24T00:36:12.545Z,37.45
2019-03-24T00:38:41.009Z,37.30
2019-03-24T00:41:09.496Z,36.85
2019-03-24T00:43:37.953Z,39.92
2019-03-24T00:46:06.358Z,37.05
2019-03-24T00:48:34.811Z,37.10
2019-03-24T00:51:03.212Z,36.10
2019-03-24T00:53:31.653Z,34.05
2019-03-24T00:56:00.063Z,35.13
2019-03-24T00:58:28.500Z,33.23
2019-03-24T01:00:56.901Z,33.65
2019-03-24T01:03:25.446Z,30.02
2019-03-24T01:05:53.976Z,29.65
2019-03-24T01:08:22.515Z,31.27
2019-03-24T01:10:50.922Z,31.37
2019-03-24T01:13:19.393Z,31.05
2019-03-24T01:15:48.357Z,32.48
2019-03-24T01:18:16.868Z,33.83
2019-03-24T01:20:45.367Z,32.88
2019-03-24T01:23:13.812Z,32.38
2019-03-24T01:25:42.266Z,31.27
2019-03-24T01:28:10.680Z,32.85
2019-03-24T01:30:39.124Z,33.33
2019-03-24T01:33:07.624Z,34.88
2019-03-24T01:35:36.049Z,35.88
2019-03-24T01:38:04.541Z,35.10
2019-03-24T01:40:33.291Z,35.95
2019-03-24T01:43:01.877Z,36.55
2019-03-24T01:45:30.364Z,37.10
2019-03-24T01:47:58.784Z,36.33
2019-03-24T01:50:27.232Z,34.65
2019-03-24T01:52:55.662Z,35.10
2019-03-24T01:55:24.126Z,38.60
2019-03-24T01:57:52.564Z,37.63
2019-03-24T02:00:21.096Z,36.42
2019-03-24T02:02:49.521Z,35.98
2019-03-24T02:05:17.956Z,32.38
2019-03-24T02:07:46.446Z,30.70
2019-03-24T02:10:15.848Z,30.55
2019-03-24T02:12:44.281Z,28.92
2019-03-24T02:15:13.091Z,30.30
2019-03-24T02:17:41.583Z,31.10
2019-03-24T02:20:10.491Z,33.90
2019-03-24T02:22:38.978Z,34.78
2019-03-24T02:25:08.068Z,34.98
2019-03-24T02:27:36.550Z,35.73
2019-03-24T02:30:08.749Z,34.98
2019-03-24T02:32:37.310Z,36.23
2019-03-24T02:35:07.164Z,36.35
2019-03-24T02:37:35.940Z,37.48
2019-03-24T02:40:09.167Z,36.42
2019-03-24T02:42:37.624Z,35.70
2019-03-24T02:45:07.197Z,36.63
2019-03-24T02:47:35.638Z,35.92
2019-03-24T02:50:04.799Z,36.28
2019-03-24T02:52:33.244Z,37.28
2019-03-24T02:55:01.747Z,35.28
2019-03-24T02:57:30.195Z,36.28
2019-03-24T02:59:58.610Z,34.53
2019-03-24T03:02:27.077Z,36.13
2019-03-24T03:04:55.501Z,35.70
2019-03-24T03:07:23.939Z,36.10
2019-03-24T03:09:52.466Z,34.00
2019-03-24T03:12:20.913Z,32.30
2019-03-24T03:14:49.320Z,33.35
2019-03-24T03:17:17.830Z,32.08
2019-03-24T03:19:46.321Z,32.53
2019-03-24T03:22:14.769Z,32.90
2019-03-24T03:24:43.186Z,32.75
2019-03-24T03:27:11.633Z,34.78
2019-03-24T03:29:40.072Z,33.92
2019-03-24T03:32:08.516Z,33.95
2019-03-24T03:34:36.952Z,33.35
2019-03-24T03:37:05.477Z,31.68
2019-03-24T03:39:33.924Z,32.33
2019-03-24T03:42:02.501Z,34.08
2019-03-24T03:44:30.947Z,36.38
2019-03-24T03:46:59.371Z,38.13
2019-03-24T03:49:27.829Z,38.55
2019-03-24T03:51:56.250Z,41.25
2019-03-24T03:54:24.735Z,40.40
2019-03-24T03:56:53.279Z,38.15
2019-03-24T03:59:21.717Z,38.85
2019-03-24T04:01:50.143Z,38.13
2019-03-24T04:04:18.573Z,39.27
2019-03-24T04:06:47.013Z,38.48
2019-03-24T04:09:15.467Z,37.63
2019-03-24T04:11:43.882Z,35.40
2019-03-24T04:14:12.326Z,35.13
2019-03-24T04:16:40.759Z,35.63
2019-03-24T04:19:09.213Z,36.45
2019-03-24T04:21:37.625Z,34.90
2019-03-24T04:24:06.069Z,32.33
2019-03-24T04:26:34.497Z,33.58
2019-03-24T04:29:02.943Z,34.75
2019-03-24T04:31:31.348Z,33.25
2019-03-24T04:33:59.813Z,32.55
2019-03-24T04:36:28.282Z,31.17
2019-03-24T04:38:56.713Z,30.00
2019-03-24T04:41:25.163Z,32.05
2019-03-24T04:43:53.572Z,31.20
2019-03-24T04:46:22.014Z,33.53
2019-03-24T04:48:50.432Z,34.95
2019-03-24T04:51:18.878Z,35.75
2019-03-24T04:53:47.290Z,34.00
2019-03-24T04:56:15.716Z,32.15
2019-03-24T04:58:44.138Z,32.90
2019-03-24T05:01:12.570Z,32.35
2019-03-24T05:03:41.076Z,37.28
2019-03-24T05:06:09.595Z,37.40
2019-03-24T05:08:38.157Z,37.42
2019-03-24T05:11:06.601Z,37.85
2019-03-24T05:13:35.027Z,35.08
2019-03-24T05:16:03.468Z,34.58
2019-03-24T05:18:31.914Z,33.88
2019-03-24T05:21:00.409Z,33.65
2019-03-24T05:23:28.874Z,30.68
2019-03-24T05:25:57.287Z,29.95
2019-03-24T05:28:25.728Z,32.20
2019-03-24T05:30:54.234Z,31.42
2019-03-24T05:33:22.681Z,29.25
2019-03-24T05:35:51.098Z,29.37
2019-03-24T05:38:19.512Z,26.82
2019-03-24T05:40:47.948Z,27.17
2019-03-24T05:43:16.383Z,28.42
2019-03-24T05:45:44.825Z,31.25
2019-03-24T05:48:13.348Z,32.13
2019-03-24T05:50:41.772Z,32.93
2019-03-24T05:53:10.222Z,32.80
2019-03-24T05:55:38.637Z,33.78
2019-03-24T05:58:07.081Z,33.18
2019-03-24T06:00:35.508Z,38.78
2019-03-24T06:03:03.965Z,43.20
2019-03-24T06:05:32.391Z,35.03
2019-03-24T06:08:00.844Z,34.38
2019-03-24T06:10:29.286Z,33.45
2019-03-24T06:12:57.772Z,36.75
2019-03-24T06:15:26.213Z,35.10
2019-03-24T06:17:54.707Z,34.13
2019-03-24T06:20:23.149Z,32.60
2019-03-24T06:22:51.571Z,34.05
2019-03-24T06:25:20.040Z,33.73
2019-03-24T06:27:48.514Z,33.10
2019-03-24T06:30:17.084Z,32.05
2019-03-24T06:32:45.521Z,33.33
2019-03-24T06:35:14.032Z,34.78
2019-03-24T06:37:42.449Z,35.58
2019-03-24T06:40:11.221Z,33.83
2019-03-24T06:42:39.636Z,34.98
2019-03-24T06:45:08.724Z,34.08
2019-03-24T06:47:37.138Z,34.33
2019-03-24T06:50:07.342Z,34.90
2019-03-24T06:52:35.909Z,33.70
2019-03-24T06:55:04.717Z,33.20
2019-03-24T06:57:33.195Z,31.48
2019-03-24T07:00:01.621Z,31.20
2019-03-24T07:02:30.129Z,32.70
2019-03-24T07:04:58.616Z,32.40
2019-03-24T07:07:27.020Z,31.60
2019-03-24T07:09:55.453Z,31.40
2019-03-24T07:12:23.878Z,32.38
2019-03-24T07:14:52.326Z,33.08
2019-03-24T07:17:20.758Z,33.98
2019-03-24T07:19:49.200Z,32.33
2019-03-24T07:22:17.636Z,34.65
2019-03-24T07:24:46.048Z,34.40
2019-03-24T07:27:14.491Z,35.10
2019-03-24T07:29:42.914Z,35.68
2019-03-24T07:32:11.421Z,35.60
2019-03-24T07:34:39.836Z,36.10
2019-03-24T07:37:08.286Z,35.83
2019-03-24T07:39:36.701Z,34.23
2019-03-24T07:42:05.657Z,36.58
2019-03-24T07:44:34.140Z,38.65
2019-03-24T07:47:05.619Z,37.70
2019-03-24T07:49:34.081Z,37.90
2019-03-24T07:52:02.546Z,39.88
2019-03-24T07:54:30.978Z,41.42
2019-03-24T07:56:59.416Z,37.17
2019-03-24T07:59:27.922Z,58.13
2019-03-24T08:01:56.358Z,40.58
2019-03-24T08:04:24.814Z,41.33
2019-03-24T08:06:53.240Z,38.48
2019-03-24T08:09:21.700Z,40.43
2019-03-24T08:11:50.137Z,41.65
2019-03-24T08:14:18.572Z,42.60
2019-03-24T08:16:47.042Z,41.80
2019-03-24T08:19:15.492Z,42.60
2019-03-24T08:21:43.937Z,41.75
2019-03-24T08:24:12.534Z,45.20
2019-03-24T08:26:41.039Z,44.88
2019-03-24T08:29:11.510Z,46.28
2019-03-24T08:31:40.005Z,47.00
2019-03-24T08:34:09.155Z,45.80
2019-03-24T08:36:37.610Z,47.00
2019-03-24T08:39:06.615Z,47.25
2019-03-24T08:41:35.130Z,48.15
2019-03-24T08:44:03.733Z,47.08
2019-03-24T08:46:32.250Z,48.83
2019-03-24T08:49:00.808Z,45.98
2019-03-24T08:51:29.216Z,44.38
2019-03-24T08:53:57.736Z,46.15
2019-03-24T08:56:26.198Z,46.60
2019-03-24T08:58:54.651Z,45.90
2019-03-24T09:01:23.060Z,48.25
2019-03-24T09:03:51.485Z,48.50
2019-03-24T09:06:19.944Z,46.80
2019-03-24T09:08:49.043Z,46.85
2019-03-24T09:11:17.633Z,48.50
2019-03-24T09:13:46.091Z,47.55
2019-03-24T09:16:14.613Z,45.80
2019-03-24T09:18:51.940Z,44.67
2019-03-24T09:21:13.273Z,42.75
2019-03-24T09:23:41.691Z,45.00
2019-03-24T09:26:10.156Z,44.75
2019-03-24T09:28:38.593Z,42.90
2019-03-24T09:31:07.046Z,43.13
2019-03-24T09:33:35.569Z,43.75
2019-03-24T09:36:04.258Z,44.77
2019-03-24T09:38:32.768Z,46.13
2019-03-24T09:41:01.323Z,43.83
2019-03-24T09:43:29.761Z,45.60
2019-03-24T09:45:58.304Z,46.42
2019-03-24T09:48:26.812Z,45.43
2019-03-24T09:50:55.280Z,45.12
2019-03-24T09:53:23.720Z,46.70
2019-03-24T09:55:52.175Z,43.05
2019-03-24T09:58:20.596Z,45.67
2019-03-24T10:00:49.086Z,45.43
2019-03-24T10:03:17.533Z,43.60
2019-03-24T10:05:45.941Z,46.48
2019-03-24T10:08:14.389Z,45.88
2019-03-24T10:10:42.832Z,44.50
2019-03-24T10:13:11.273Z,47.20
2019-03-24T10:15:39.784Z,45.40
2019-03-24T10:18:08.233Z,44.40
2019-03-24T10:20:36.670Z,45.30
2019-03-24T10:23:05.119Z,44.75
2019-03-24T10:25:33.636Z,42.83
2019-03-24T10:28:02.088Z,44.18
2019-03-24T10:30:30.509Z,44.63
2019-03-24T10:32:58.953Z,43.25
2019-03-24T10:35:27.404Z,44.00
2019-03-24T10:37:55.912Z,46.68
2019-03-24T10:40:28.857Z,45.08
2019-03-24T10:42:54.521Z,44.30
2019-03-24T10:45:23.016Z,44.18
2019-03-24T10:47:51.742Z,46.25
2019-03-24T10:50:20.413Z,46.80
2019-03-24T10:52:49.887Z,47.58
2019-03-24T10:55:18.333Z,46.75
2019-03-24T10:57:46.871Z,45.78
2019-03-24T11:00:20.972Z,48.25
2019-03-24T11:02:49.818Z,49.03
2019-03-24T11:05:18.392Z,46.48
2019-03-24T11:07:46.824Z,44.98
2019-03-24T11:10:15.338Z,44.98
2019-03-24T11:12:43.766Z,43.42
2019-03-24T11:15:12.433Z,40.90
2019-03-24T11:17:40.982Z,41.60
2019-03-24T11:20:09.853Z,42.88
2019-03-24T11:22:38.327Z,41.50
2019-03-24T11:25:08.792Z,41.40
2019-03-24T11:27:37.718Z,48.02
2019-03-24T11:30:09.337Z,38.13
2019-03-24T11:32:38.127Z,42.05
2019-03-24T11:35:07.601Z,40.60
2019-03-24T11:37:36.141Z,40.50
2019-03-24T11:40:09.546Z,40.08
2019-03-24T11:42:38.066Z,39.45
2019-03-24T11:45:08.141Z,38.83
2019-03-24T11:47:36.645Z,38.92
2019-03-24T11:50:07.337Z,37.38
2019-03-24T11:52:35.880Z,36.98
2019-03-24T11:55:06.792Z,37.63
2019-03-24T11:57:35.327Z,35.38
2019-03-24T12:00:12.885Z,37.98
2019-03-24T12:02:41.517Z,37.10
2019-03-24T12:05:10.386Z,39.03
2019-03-24T12:07:38.900Z,39.27
2019-03-24T12:10:09.437Z,41.42
2019-03-24T12:12:37.958Z,38.88
2019-03-24T12:15:07.944Z,38.53
2019-03-24T12:17:36.514Z,42.17
2019-03-24T12:20:08.617Z,41.53
2019-03-24T12:22:37.309Z,40.98
2019-03-24T12:25:06.201Z,37.98
2019-03-24T12:27:34.805Z,38.58
2019-03-24T12:30:04.773Z,38.02
2019-03-24T12:32:33.216Z,38.73
2019-03-24T12:35:01.639Z,37.73
2019-03-24T12:37:30.097Z,37.42
2019-03-24T12:39:58.534Z,38.45
2019-03-24T12:42:26.996Z,36.83
2019-03-24T12:44:55.414Z,36.05
2019-03-24T12:47:23.877Z,36.35
2019-03-24T12:49:52.335Z,36.25
2019-03-24T12:52:20.753Z,37.80
2019-03-24T12:54:49.285Z,36.55
2019-03-24T12:57:17.788Z,36.68
2019-03-24T12:59:46.335Z,36.03
2019-03-24T13:02:14.759Z,36.53
2019-03-24T13:04:43.213Z,35.58
2019-03-24T13:07:11.653Z,36.68
2019-03-24T13:09:40.117Z,34.45
2019-03-24T13:12:08.807Z,36.50
2019-03-24T13:14:37.249Z,37.13
2019-03-24T13:17:05.673Z,36.28
2019-03-24T13:19:36.125Z,38.83
2019-03-24T13:22:04.403Z,38.05
2019-03-24T13:24:32.854Z,36.77
2019-03-24T13:27:01.301Z,38.33
2019-03-24T13:29:29.745Z,38.67
2019-03-24T13:31:58.258Z,39.18
2019-03-24T13:34:26.705Z,37.83
2019-03-24T13:36:55.142Z,38.23
2019-03-24T13:39:23.670Z,38.63
2019-03-24T13:41:52.228Z,38.50
2019-03-24T13:44:20.697Z,35.20
2019-03-24T13:46:49.129Z,39.50
2019-03-24T13:49:17.569Z,38.90
2019-03-24T13:51:46.020Z,37.58
2019-03-24T13:54:14.475Z,39.03
2019-03-24T13:56:42.929Z,37.98
2019-03-24T13:59:11.372Z,37.70
2019-03-24T14:01:39.829Z,36.83
2019-03-24T14:04:08.331Z,36.28
2019-03-24T14:06:36.804Z,34.20
2019-03-24T14:09:07.461Z,36.13
2019-03-24T14:11:36.002Z,33.50
2019-03-24T14:14:04.695Z,36.88
2019-03-24T14:16:33.158Z,36.05
2019-03-24T14:19:02.477Z,37.17
2019-03-24T14:21:30.936Z,34.78
2019-03-24T14:23:59.355Z,36.03
2019-03-24T14:26:27.892Z,36.75
2019-03-24T14:28:56.317Z,34.95
2019-03-24T14:31:24.764Z,34.23
2019-03-24T14:33:53.192Z,36.00
2019-03-24T14:36:21.649Z,35.23
2019-03-24T14:38:50.083Z,35.28
2019-03-24T14:41:18.543Z,34.03
2019-03-24T14:43:46.976Z,35.83
2019-03-24T14:46:15.496Z,35.28
2019-03-24T14:48:43.997Z,35.80
2019-03-24T14:51:12.445Z,34.98
2019-03-24T14:53:40.961Z,35.23
2019-03-24T14:56:09.474Z,34.10
2019-03-24T14:58:37.976Z,35.25
2019-03-24T15:01:06.422Z,35.35
2019-03-24T15:03:34.932Z,33.63
2019-03-24T15:06:03.391Z,33.40
2019-03-24T15:08:31.913Z,35.83
2019-03-24T15:11:00.377Z,34.05
2019-03-24T15:13:28.822Z,34.45
2019-03-24T15:15:57.256Z,34.05
2019-03-24T15:18:25.708Z,35.85
2019-03-24T15:21:04.901Z,33.83
2019-03-24T15:23:24.398Z,33.88
2019-03-24T15:25:52.847Z,35.03
2019-03-24T15:28:21.293Z,34.55
2019-03-24T15:30:49.718Z,35.35
2019-03-24T15:33:18.226Z,34.60
2019-03-24T15:35:46.664Z,35.78
2019-03-24T15:38:17.651Z,34.92
2019-03-24T15:40:45.829Z,35.33
2019-03-24T15:43:14.304Z,34.05
2019-03-24T15:45:42.716Z,33.75
2019-03-24T15:48:12.772Z,34.60
2019-03-24T15:50:41.221Z,33.80
2019-03-24T15:53:09.714Z,33.90
2019-03-24T15:55:38.189Z,33.73
2019-03-24T15:58:06.628Z,34.92
2019-03-24T16:00:43.030Z,36.20
2019-03-24T16:03:11.644Z,35.03
2019-03-24T16:05:40.213Z,33.75
2019-03-24T16:08:10.866Z,37.15
2019-03-24T16:10:39.421Z,40.17
2019-03-24T16:13:08.024Z,44.30
2019-03-24T16:15:36.495Z,45.45
2019-03-24T16:18:05.066Z,45.00
2019-03-24T16:20:33.524Z,39.35
2019-03-24T16:23:01.951Z,38.70
2019-03-24T16:25:30.416Z,36.50
2019-03-24T16:27:58.861Z,35.98
2019-03-24T16:30:27.359Z,35.95
2019-03-24T16:32:55.797Z,35.13
2019-03-24T16:35:24.261Z,36.73
2019-03-24T16:37:52.704Z,36.80
2019-03-24T16:40:21.176Z,36.93
2019-03-24T16:42:49.588Z,38.73
2019-03-24T16:45:18.044Z,36.55
2019-03-24T16:47:46.484Z,38.13
2019-03-24T16:50:15.140Z,38.23
2019-03-24T16:52:43.630Z,38.85
2019-03-24T16:55:12.321Z,38.28
2019-03-24T16:57:40.820Z,38.92
2019-03-24T17:00:09.713Z,38.02
2019-03-24T17:02:38.168Z,37.30
2019-03-24T17:05:07.685Z,36.75
2019-03-24T17:07:36.098Z,36.40
2019-03-24T17:10:07.186Z,36.15
2019-03-24T17:12:35.799Z,35.58
2019-03-24T17:15:06.392Z,35.73
2019-03-24T17:17:34.837Z,36.63
2019-03-24T17:20:04.442Z,36.28
2019-03-24T17:22:33.231Z,35.23
2019-03-24T17:25:01.727Z,35.03
2019-03-24T17:27:30.232Z,35.58
2019-03-24T17:29:58.688Z,38.85
2019-03-24T17:32:27.138Z,36.90
2019-03-24T17:34:55.695Z,37.35
2019-03-24T17:37:24.298Z,35.75
2019-03-24T17:39:52.752Z,35.35
2019-03-24T17:42:21.302Z,34.48
2019-03-24T17:44:49.742Z,35.45
2019-03-24T17:47:18.225Z,34.23
2019-03-24T17:49:46.652Z,36.10
2019-03-24T17:52:15.162Z,34.73
2019-03-24T17:54:43.589Z,34.13
2019-03-24T17:57:12.060Z,34.50
2019-03-24T17:59:40.484Z,32.88
2019-03-24T18:02:14.248Z,34.40
2019-03-24T18:04:39.104Z,33.40
2019-03-24T18:07:07.585Z,31.85
2019-03-24T18:09:36.056Z,30.17
2019-03-24T18:12:04.561Z,30.62
2019-03-24T18:14:33.008Z,31.27
2019-03-24T18:17:01.470Z,31.07
2019-03-24T18:19:29.937Z,29.95
2019-03-24T18:21:58.359Z,31.62
2019-03-24T18:24:26.960Z,35.03
2019-03-24T18:26:55.455Z,32.40
2019-03-24T18:29:23.921Z,32.20
2019-03-24T18:31:52.364Z,31.40
2019-03-24T18:34:20.819Z,30.08
2019-03-24T18:36:49.254Z,26.95
2019-03-24T18:39:17.702Z,26.33
2019-03-24T18:41:46.208Z,24.70
2019-03-24T18:44:14.694Z,23.90
2019-03-24T18:46:43.173Z,24.80
2019-03-24T18:49:11.754Z,23.95
2019-03-24T18:51:40.197Z,22.48
2019-03-24T18:54:08.662Z,23.35
2019-03-24T18:56:37.179Z,21.52
2019-03-24T18:59:05.639Z,21.77
2019-03-24T19:01:34.119Z,22.22
2019-03-24T19:04:02.689Z,22.67
2019-03-24T19:06:31.195Z,20.12
2019-03-24T19:08:59.681Z,20.50
2019-03-24T19:11:28.163Z,19.10
2019-03-24T19:13:56.680Z,19.23
2019-03-24T19:16:25.151Z,18.52
2019-03-24T19:18:53.609Z,18.48
2019-03-24T19:21:22.074Z,18.27
2019-03-24T19:23:50.544Z,17.70
2019-03-24T19:26:19.013Z,17.52
2019-03-24T19:28:47.456Z,17.45
2019-03-24T19:31:15.980Z,16.30
2019-03-24T19:33:44.422Z,15.78
2019-03-24T19:36:12.868Z,15.88
2019-03-24T19:38:42.281Z,16.45
2019-03-24T19:41:10.815Z,17.55
2019-03-24T19:43:39.898Z,16.07
2019-03-24T19:46:08.396Z,15.68
2019-03-24T19:48:36.899Z,15.28
2019-03-24T19:51:07.056Z,15.08
2019-03-24T19:53:35.668Z,14.58
2019-03-24T19:56:04.920Z,15.30
2019-03-24T19:58:33.335Z,15.03
2019-03-24T20:01:01.820Z,13.70
2019-03-24T20:03:30.260Z,14.10
2019-03-24T20:05:58.705Z,14.63
2019-03-24T20:08:27.165Z,15.43
2019-03-24T20:10:55.671Z,12.65
2019-03-24T20:13:24.119Z,14.30
2019-03-24T20:15:52.552Z,14.68
2019-03-24T20:18:21.079Z,17.23
2019-03-24T20:20:51.968Z,22.98
2019-03-24T20:23:19.709Z,15.13
2019-03-24T20:25:48.149Z,15.95
2019-03-24T20:28:16.613Z,14.15
2019-03-24T20:30:45.096Z,14.53
2019-03-24T20:33:14.465Z,14.60
2019-03-24T20:35:42.993Z,14.50
2019-03-24T20:38:11.444Z,14.00
2019-03-24T20:40:39.883Z,13.93
2019-03-24T20:43:08.329Z,13.48
2019-03-24T20:45:36.817Z,14.53
2019-03-24T20:48:05.345Z,14.43
2019-03-24T20:50:33.875Z,16.77
2019-03-24T20:53:05.746Z,16.57
2019-03-24T20:55:34.466Z,16.50
2019-03-24T20:58:02.688Z,15.38
2019-03-24T21:00:35.570Z,13.05
2019-03-24T21:03:05.069Z,14.05
2019-03-24T21:05:33.621Z,13.83
2019-03-24T21:08:02.134Z,14.15
2019-03-24T21:10:30.576Z,13.55
2019-03-24T21:12:59.089Z,15.63
2019-03-24T21:15:27.622Z,16.00
2019-03-24T21:17:56.056Z,16.60
2019-03-24T21:20:24.530Z,16.82
2019-03-24T21:22:52.977Z,23.10
2019-03-24T21:25:21.432Z,19.73
2019-03-24T21:27:49.844Z,27.00
2019-03-24T21:30:21.392Z,23.32
2019-03-24T21:32:51.525Z,20.88
2019-03-24T21:35:19.966Z,20.32
2019-03-24T21:37:48.517Z,21.55
2019-03-24T21:40:17.066Z,20.80
2019-03-24T21:42:45.499Z,22.60
2019-03-24T21:45:15.549Z,22.77
2019-03-24T21:47:43.980Z,24.25
2019-03-24T21:50:12.583Z,22.67
2019-03-24T21:52:41.049Z,20.48
2019-03-24T21:55:09.736Z,21.75
2019-03-24T21:57:38.204Z,20.65
2019-03-24T22:00:08.772Z,20.57
2019-03-24T22:02:37.234Z,21.02
2019-03-24T22:05:06.010Z,20.30
2019-03-24T22:07:34.472Z,21.57
2019-03-24T22:10:02.958Z,21.33
2019-03-24T22:12:31.402Z,20.65
2019-03-24T22:14:59.947Z,20.20
2019-03-24T22:17:28.422Z,20.55
2019-03-24T22:19:56.845Z,20.35
2019-03-24T22:22:25.292Z,21.25
2019-03-24T22:24:53.794Z,20.82
2019-03-24T22:27:22.268Z,21.85
2019-03-24T22:29:50.714Z,22.37
2019-03-24T22:32:19.156Z,21.25
2019-03-24T22:34:47.658Z,22.35
2019-03-24T22:37:16.376Z,23.85
2019-03-24T22:39:44.916Z,24.92
2019-03-24T22:42:13.365Z,22.27
2019-03-24T22:44:41.803Z,22.67
2019-03-24T22:47:10.304Z,20.20
2019-03-24T22:49:38.744Z,21.50
2019-03-24T22:52:07.821Z,22.17
2019-03-24T22:54:36.532Z,20.85
2019-03-24T22:57:05.124Z,20.68
2019-03-24T22:59:33.625Z,21.42
2019-03-24T23:02:02.188Z,19.12
2019-03-24T23:04:30.639Z,18.98
2019-03-24T23:06:59.060Z,16.80
2019-03-24T23:09:27.662Z,17.42
2019-03-24T23:11:56.104Z,17.62
2019-03-24T23:14:24.536Z,17.67
2019-03-24T23:16:52.958Z,18.00
2019-03-24T23:19:21.400Z,17.30
2019-03-24T23:21:49.808Z,17.12
2019-03-24T23:24:18.279Z,15.75
2019-03-24T23:26:46.709Z,16.32
2019-03-24T23:29:15.148Z,16.85
2019-03-24T23:31:43.567Z,22.10
2019-03-24T23:34:14.841Z,22.52
2019-03-24T23:36:43.266Z,21.37
2019-03-24T23:39:11.834Z,21.48
2019-03-24T23:41:40.267Z,21.85
2019-03-24T23:44:08.756Z,17.17
2019-03-24T23:46:37.200Z,17.95
2019-03-24T23:49:05.620Z,14.70
2019-03-24T23:51:34.065Z,12.78
2019-03-24T23:54:02.543Z,12.75
2019-03-24T23:56:30.998Z,11.30
2019-03-24T23:58:59.412Z,10.72
